createdAt,value
2019-04-20T00:03:09.586Z,15.30
2019-04-20T00:07:14.813Z,15.40
2019-04-20T00:11:26.324Z,15.30
2019-04-20T00:15:26.407Z,15.20
2019-04-20T00:19:37.097Z,15.10
2019-04-20T00:23:46.157Z,14.80
2019-04-20T00:28:19.554Z,14.70
2019-04-20T00:32:21.049Z,14.60
2019-04-20T00:36:17.955Z,14.50
2019-04-20T00:40:23.672Z,14.40
2019-04-20T00:44:35.428Z,14.20
2019-04-20T00:48:48.398Z,14.20
2019-04-20T00:52:54.361Z,14.00
2019-04-20T00:56:52.058Z,13.90
2019-04-20T01:01:20.676Z,13.80
2019-04-20T01:05:22.902Z,13.80
2019-04-20T01:09:20.343Z,13.70
2019-04-20T01:13:26.873Z,13.60
2019-04-20T01:17:31.796Z,13.40
2019-04-20T01:21:36.870Z,13.40
2019-04-20T01:25:47.050Z,13.30
2019-04-20T01:30:03.478Z,13.20
2019-04-20T01:34:09.510Z,13.20
2019-04-20T01:38:25.070Z,13.10
2019-04-20T01:42:13.240Z,13.00
2019-04-20T01:46:22.021Z,13.00
2019-04-20T01:50:29.704Z,12.90
2019-04-20T01:54:52.302Z,12.80
2019-04-20T01:59:10.569Z,12.80
2019-04-20T02:03:43.915Z,12.70
2019-04-20T02:07:49.399Z,12.70
2019-04-20T02:11:54.979Z,12.70
2019-04-20T02:16:10.094Z,12.60
2019-04-20T02:20:31.716Z,12.50
2019-04-20T02:24:16.476Z,12.50
2019-04-20T02:28:37.403Z,12.40
2019-04-20T02:33:10.169Z,12.30
2019-04-20T02:37:42.240Z,12.20
2019-04-20T02:49:51.387Z,12.20
2019-04-20T02:54:11.105Z,12.00
2019-04-20T02:58:05.119Z,11.90
2019-04-20T03:01:59.075Z,11.80
2019-04-20T03:06:05.702Z,11.80
2019-04-20T03:10:11.282Z,11.60
2019-04-20T03:14:20.040Z,11.50
2019-04-20T03:18:26.574Z,11.50
2019-04-20T03:22:51.224Z,11.40
2019-04-20T03:26:50.575Z,11.40
2019-04-20T03:35:20.553Z,11.30
2019-04-20T03:39:18.005Z,11.20
2019-04-20T03:43:07.830Z,11.20
2019-04-20T03:47:23.837Z,11.10
2019-04-20T03:51:39.802Z,10.90
2019-04-20T03:56:05.148Z,11.00
2019-04-20T04:00:28.589Z,10.90
2019-04-20T04:04:50.620Z,10.80
2019-04-20T04:08:55.926Z,10.80
2019-04-20T04:13:24.961Z,10.70
2019-04-20T04:17:35.535Z,10.70
2019-04-20T04:21:52.548Z,10.70
2019-04-20T04:26:00.616Z,10.70
2019-04-20T04:30:05.156Z,10.70
2019-04-20T04:34:12.533Z,10.50
2019-04-20T04:38:27.410Z,10.50
2019-04-20T04:42:28.212Z,10.50
2019-04-20T04:46:16.581Z,10.40
2019-04-20T04:50:26.176Z,10.40
2019-04-20T04:54:37.756Z,10.40
2019-04-20T04:58:36.180Z,10.40
2019-04-20T05:02:48.885Z,10.40
2019-04-20T05:07:05.051Z,10.40
2019-04-20T05:10:54.502Z,10.50
2019-04-20T05:15:07.579Z,10.60
2019-04-20T05:19:42.879Z,10.60
2019-04-20T05:23:31.953Z,10.60
2019-04-20T05:27:54.286Z,10.70
2019-04-20T05:31:46.341Z,10.80
2019-04-20T05:36:05.625Z,10.80
2019-04-20T05:40:20.626Z,10.90
2019-04-20T05:44:19.587Z,11.00
2019-04-20T05:48:25.908Z,10.90
2019-04-20T05:52:45.097Z,11.10
2019-04-20T06:00:56.849Z,11.40
2019-04-20T06:09:12.337Z,11.80
2019-04-20T06:13:15.024Z,11.90
2019-04-20T06:17:50.380Z,12.00
2019-04-20T06:22:04.016Z,12.10
2019-04-20T06:26:32.116Z,12.20
2019-04-20T06:30:12.265Z,12.40
2019-04-20T06:34:36.625Z,12.30
2019-04-20T06:38:48.349Z,12.60
2019-04-20T06:42:39.671Z,12.70
2019-04-20T06:46:56.670Z,12.90
2019-04-20T06:50:52.734Z,13.00
2019-04-20T06:55:34.429Z,13.20
2019-04-20T06:59:29.066Z,13.30
2019-04-20T07:03:37.322Z,13.40
2019-04-20T07:07:30.881Z,13.50
2019-04-20T07:11:35.649Z,13.60
2019-04-20T07:15:48.937Z,13.80
2019-04-20T07:20:09.872Z,13.90
2019-04-20T07:24:25.525Z,14.00
2019-04-20T07:28:26.550Z,14.30
2019-04-20T07:32:32.558Z,14.30
2019-04-20T07:36:40.450Z,14.40
2019-04-20T07:40:45.882Z,14.50
2019-04-20T07:44:58.058Z,14.60
2019-04-20T07:49:07.306Z,14.80
2019-04-20T07:53:09.248Z,14.90
2019-04-20T07:57:21.059Z,14.90
2019-04-20T08:01:40.894Z,14.90
2019-04-20T08:05:36.365Z,15.10
2019-04-20T08:09:42.249Z,15.40
2019-04-20T08:14:02.376Z,15.50
2019-04-20T08:18:21.379Z,15.60
2019-04-20T08:22:15.448Z,15.70
2019-04-20T08:26:05.521Z,15.90
2019-04-20T08:30:32.258Z,16.00
2019-04-20T08:34:46.112Z,16.10
2019-04-20T08:39:06.858Z,16.20
2019-04-20T08:43:05.485Z,16.20
2019-04-20T08:47:15.450Z,16.40
2019-04-20T08:51:06.155Z,16.60
2019-04-20T08:55:09.231Z,16.70
2019-04-20T08:58:57.452Z,17.00
2019-04-20T09:03:12.960Z,17.00
2019-04-20T09:07:15.287Z,17.20
2019-04-20T09:11:39.967Z,17.20
2019-04-20T09:15:23.431Z,17.30
2019-04-20T09:19:36.562Z,17.40
2019-04-20T09:23:52.214Z,17.40
2019-04-20T09:28:11.772Z,17.60
2019-04-20T09:32:28.767Z,17.70
2019-04-20T09:36:42.132Z,17.70
2019-04-20T09:40:51.022Z,17.90
2019-04-20T09:44:46.199Z,18.00
2019-04-20T09:48:53.629Z,18.10
2019-04-20T09:53:09.012Z,18.30
2019-04-20T09:57:22.642Z,18.40
2019-04-20T10:01:20.064Z,18.60
2019-04-20T10:05:13.888Z,18.80
2019-04-20T10:09:20.413Z,18.80
2019-04-20T10:13:27.048Z,19.00
2019-04-20T10:17:33.584Z,19.10
2019-04-20T10:21:38.815Z,19.40
2019-04-20T10:25:44.684Z,19.50
2019-04-20T10:29:49.795Z,19.50
2019-04-20T10:33:55.645Z,19.60
2019-04-20T10:38:12.135Z,19.60
2019-04-20T10:42:18.265Z,19.70
2019-04-20T10:46:24.815Z,19.90
2019-04-20T10:50:31.260Z,19.90
2019-04-20T10:54:38.499Z,20.10
2019-04-20T10:58:43.576Z,20.10
2019-04-20T11:02:50.478Z,20.20
2019-04-20T11:06:56.637Z,20.20
2019-04-20T11:11:10.881Z,20.50
2019-04-20T11:15:10.152Z,20.70
2019-04-20T11:19:15.710Z,20.70
2019-04-20T11:23:22.379Z,20.90
2019-04-20T11:27:28.008Z,21.20
2019-04-20T11:31:39.501Z,21.20
2019-04-20T11:35:42.910Z,21.30
2019-04-20T11:39:47.339Z,21.30
2019-04-20T11:43:53.811Z,21.40
2019-04-20T11:47:58.948Z,21.50
2019-04-20T11:52:04.086Z,21.60
2019-04-20T11:56:14.467Z,21.70
2019-04-20T12:00:19.173Z,21.80
2019-04-20T12:04:41.460Z,22.10
2019-04-20T12:08:40.214Z,22.20
2019-04-20T12:12:49.399Z,22.40
2019-04-20T12:16:51.250Z,22.70
2019-04-20T12:20:56.747Z,22.90
2019-04-20T12:25:02.553Z,23.20
2019-04-20T12:29:07.884Z,23.60
2019-04-20T12:33:13.597Z,24.00
2019-04-20T12:37:19.123Z,24.10
2019-04-20T12:41:34.455Z,24.20
2019-04-20T12:45:33.484Z,24.50
2019-04-20T12:49:38.648Z,25.00
2019-04-20T12:53:44.523Z,25.30
2019-04-20T12:57:50.326Z,25.90
2019-04-20T13:01:55.543Z,26.30
2019-04-20T13:06:01.835Z,26.50
2019-04-20T13:10:09.855Z,27.00
2019-04-20T13:14:48.489Z,27.30
2019-04-20T13:19:03.569Z,27.60
2019-04-20T13:23:09.253Z,28.10
2019-04-20T13:27:16.812Z,28.50
2019-04-20T13:31:22.015Z,28.90
2019-04-20T13:35:28.206Z,28.90
2019-04-20T13:39:33.144Z,29.10
2019-04-20T13:43:39.646Z,29.40
2019-04-20T13:47:45.272Z,29.70
2019-04-20T13:51:50.824Z,29.90
2019-04-20T13:55:56.331Z,30.40
2019-04-20T14:00:03.881Z,30.40
2019-04-20T14:04:30.709Z,30.60
2019-04-20T14:08:36.832Z,30.70
2019-04-20T14:12:54.763Z,30.90
2019-04-20T14:16:49.228Z,31.40
2019-04-20T14:20:56.264Z,31.80
2019-04-20T14:25:03.016Z,31.80
2019-04-20T14:29:09.029Z,31.80
2019-04-20T14:33:14.806Z,32.00
2019-04-20T14:37:20.681Z,32.20
2019-04-20T14:41:26.410Z,32.50
2019-04-20T14:45:32.362Z,31.90
2019-04-20T14:49:38.766Z,31.70
2019-04-20T14:53:45.397Z,31.70
2019-04-20T14:57:51.684Z,31.50
2019-04-20T15:02:00.758Z,31.70
2019-04-20T15:06:07.585Z,32.20
2019-04-20T15:10:13.087Z,33.10
2019-04-20T15:14:18.662Z,33.90
2019-04-20T15:18:29.258Z,35.00
2019-04-20T15:22:57.256Z,35.60
2019-04-20T15:27:04.870Z,35.70
2019-04-20T15:31:10.095Z,35.20
2019-04-20T15:35:19.105Z,35.00
2019-04-20T15:39:23.512Z,35.20
2019-04-20T15:43:28.396Z,36.10
2019-04-20T15:47:34.462Z,36.60
2019-04-20T15:51:39.752Z,37.20
2019-04-20T15:55:46.975Z,37.60
2019-04-20T15:59:52.706Z,37.90
2019-04-20T16:04:03.744Z,38.20
2019-04-20T16:08:28.025Z,38.00
2019-04-20T16:12:35.146Z,38.00
2019-04-20T16:16:40.421Z,37.00
2019-04-20T16:20:56.427Z,35.70
2019-04-20T16:24:57.259Z,34.60
2019-04-20T16:29:02.141Z,33.60
2019-04-20T16:33:08.260Z,32.50
2019-04-20T16:37:14.809Z,31.90
2019-04-20T16:41:22.134Z,31.30
2019-04-20T16:45:29.534Z,30.90
2019-04-20T16:49:34.893Z,30.60
2019-04-20T16:53:41.158Z,30.30
2019-04-20T16:57:49.231Z,30.10
2019-04-20T17:01:53.975Z,29.90
2019-04-20T17:05:59.978Z,29.40
2019-04-20T17:10:05.735Z,29.10
2019-04-20T17:14:12.667Z,28.80
2019-04-20T17:18:17.792Z,28.70
2019-04-20T17:22:23.399Z,28.50
2019-04-20T17:26:39.121Z,28.40
2019-04-20T17:31:03.032Z,28.00
2019-04-20T17:35:20.652Z,27.80
2019-04-20T17:39:30.179Z,27.60
2019-04-20T17:43:31.420Z,27.40
2019-04-20T17:47:47.155Z,27.00
2019-04-20T17:52:03.535Z,26.70
2019-04-20T17:55:51.166Z,26.30
2019-04-20T18:00:04.582Z,26.10
2019-04-20T18:04:46.527Z,25.80
2019-04-20T18:08:45.409Z,25.40
2019-04-20T18:12:37.436Z,25.20
2019-04-20T18:17:01.114Z,25.00
2019-04-20T18:21:21.002Z,24.80
2019-04-20T18:25:55.228Z,24.60
2019-04-20T18:29:52.774Z,24.30
2019-04-20T18:33:42.469Z,24.10
2019-04-20T18:37:52.477Z,24.00
2019-04-20T18:42:02.640Z,23.90
2019-04-20T18:46:17.657Z,23.70
2019-04-20T18:50:17.389Z,23.60
2019-04-20T18:54:20.757Z,23.40
2019-04-20T18:58:21.153Z,23.20
2019-04-20T19:02:30.845Z,23.20
2019-04-20T19:06:34.061Z,23.10
2019-04-20T19:10:42.084Z,22.90
2019-04-20T19:15:30.588Z,22.70
2019-04-20T19:19:34.275Z,22.50
2019-04-20T19:23:36.529Z,22.20
2019-04-20T19:27:48.444Z,22.00
2019-04-20T19:32:08.646Z,21.80
2019-04-20T19:36:10.699Z,21.70
2019-04-20T19:40:11.986Z,21.60
2019-04-20T19:44:18.686Z,21.50
2019-04-20T19:48:28.273Z,21.50
2019-04-20T19:52:43.337Z,21.30
2019-04-20T19:56:42.604Z,21.20
2019-04-20T20:00:50.493Z,21.00
2019-04-20T20:05:00.430Z,20.80
2019-04-20T20:09:04.168Z,20.60
2019-04-20T20:13:09.991Z,20.40
2019-04-20T20:17:40.273Z,20.10
2019-04-20T20:21:35.251Z,20.00
2019-04-20T20:25:37.349Z,19.90
2019-04-20T20:29:45.390Z,19.80
2019-04-20T20:34:01.927Z,19.70
2019-04-20T20:37:56.944Z,19.60
2019-04-20T20:42:12.852Z,19.40
2019-04-20T20:46:17.330Z,19.20
2019-04-20T20:50:32.921Z,19.00
2019-04-20T20:54:33.629Z,19.00
2019-04-20T20:58:36.220Z,18.80
2019-04-20T21:02:43.513Z,18.80
2019-04-20T21:06:38.330Z,18.70
2019-04-20T21:10:45.736Z,18.50
2019-04-20T21:14:50.922Z,18.40
2019-04-20T21:19:15.424Z,18.30
2019-04-20T21:23:18.703Z,18.20
2019-04-20T21:27:14.573Z,18.10
2019-04-20T21:31:21.667Z,18.00
2019-04-20T21:35:23.770Z,18.00
2019-04-20T21:39:38.993Z,17.90
2019-04-20T21:43:40.507Z,17.80
2019-04-20T21:47:44.725Z,17.60
2019-04-20T21:51:55.424Z,17.40
2019-04-20T21:55:55.446Z,17.20
2019-04-20T22:00:07.857Z,17.00
2019-04-20T22:04:08.545Z,17.00
2019-04-20T22:08:16.048Z,16.90
2019-04-20T22:12:20.270Z,16.90
2019-04-20T22:16:34.734Z,16.90
2019-04-20T22:20:42.482Z,16.90
2019-04-20T22:24:56.403Z,17.00
2019-04-20T22:28:47.929Z,16.90
2019-04-20T22:32:55.279Z,16.80
2019-04-20T22:37:02.256Z,16.50
2019-04-20T22:41:13.814Z,16.30
2019-04-20T22:45:15.532Z,16.00
2019-04-20T22:49:37.011Z,15.90
2019-04-20T22:53:40.425Z,15.70
2019-04-20T22:57:52.394Z,15.60
2019-04-20T23:01:46.513Z,15.50
2019-04-20T23:05:47.042Z,15.40
2019-04-20T23:09:54.987Z,15.20
2019-04-20T23:13:58.753Z,15.20
2019-04-20T23:18:04.292Z,15.30
2019-04-20T23:22:13.358Z,15.20
2019-04-20T23:26:24.296Z,15.00
2019-04-20T23:30:26.072Z,14.90
2019-04-20T23:34:32.451Z,14.80
2019-04-20T23:38:36.738Z,14.60
2019-04-20T23:42:47.699Z,14.60
2019-04-20T23:47:20.160Z,14.40
2019-04-20T23:51:40.698Z,14.30
2019-04-20T23:55:31.889Z,14.00
2019-04-20T23:59:39.580Z,13.90
